Time;durP1;ratioP1;P1;durP2;ratioP2;P2;SDS_P1;SDS_P2;PMS_P1;PMS_P2;Temp;Humidity;BMP_temperature;BMP_pressure;BME280_temperature;BME280_humidity;BME280_pressure;Samples;Min_cycle;Max_cycle;Signal;HPM_P1;HPM_P2
2022/01/05 00:02:06;;;;;;;1.80;1.63;;;4.70;99.90;;;;;;4973780;28;20435;-67
2022/01/05 00:04:32;;;;;;;0.90;0.90;;;4.70;99.90;;;;;;4973672;28;20475;-67
2022/01/05 00:06:58;;;;;;;0.90;0.70;;;4.70;99.90;;;;;;4973275;28;20192;-67
2022/01/05 00:09:23;;;;;;;0.70;0.70;;;4.70;99.90;;;;;;4973656;28;20817;-67
2022/01/05 00:11:49;;;;;;;1.07;0.80;;;4.70;99.90;;;;;;4973421;28;20243;-66
2022/01/05 00:14:15;;;;;;;1.70;0.90;;;4.70;99.90;;;;;;4973550;28;20165;-67
2022/01/05 00:16:40;;;;;;;0.80;0.80;;;4.70;99.90;;;;;;4973302;28;20516;-67
2022/01/05 00:19:06;;;;;;;0.60;0.60;;;4.70;99.90;;;;;;4973378;28;20478;-67
2022/01/05 00:21:32;;;;;;;0.90;0.80;;;4.70;99.90;;;;;;4973419;28;20211;-67
2022/01/05 00:23:57;;;;;;;1.00;0.87;;;4.70;99.90;;;;;;4973458;28;20164;-67
2022/01/05 00:26:25;;;;;;;0.70;0.70;;;4.60;99.90;;;;;;4973151;28;20180;-67
2022/01/05 00:28:50;;;;;;;0.77;0.67;;;4.60;99.90;;;;;;4973497;28;20164;-67
2022/01/05 00:31:16;;;;;;;1.33;1.00;;;4.60;99.90;;;;;;4973184;28;20463;-67
2022/01/05 00:33:42;;;;;;;0.60;0.60;;;4.60;99.90;;;;;;4973299;28;20244;-67
2022/01/05 00:36:07;;;;;;;0.67;0.57;;;4.60;99.90;;;;;;4972926;28;20179;-67
2022/01/05 00:38:34;;;;;;;0.83;0.60;;;4.60;99.90;;;;;;4973270;28;20213;-67
2022/01/05 00:41:00;;;;;;;0.83;0.83;;;4.60;99.90;;;;;;4973193;28;20184;-67
2022/01/05 00:43:26;;;;;;;0.90;0.60;;;4.70;99.90;;;;;;4973233;28;20420;-67
2022/01/05 00:45:51;;;;;;;1.47;0.80;;;4.70;99.90;;;;;;4972964;28;20435;-67
2022/01/05 00:48:17;;;;;;;0.90;0.50;;;4.70;99.90;;;;;;4973222;28;20177;-67
2022/01/05 00:50:42;;;;;;;2.47;0.60;;;4.70;99.90;;;;;;4972938;28;20287;-67
2022/01/05 00:53:08;;;;;;;0.60;0.53;;;4.80;99.90;;;;;;4973105;28;20176;-67
2022/01/05 00:55:33;;;;;;;0.70;0.60;;;4.80;99.90;;;;;;4972932;28;20176;-67
2022/01/05 00:57:59;;;;;;;0.50;0.50;;;4.80;99.90;;;;;;4973163;28;20256;-67
2022/01/05 01:00:24;;;;;;;0.60;0.60;;;4.80;99.90;;;;;;4972982;28;20713;-67
2022/01/05 01:02:50;;;;;;;0.60;0.60;;;4.80;99.90;;;;;;4973111;28;20199;-67
2022/01/05 01:05:16;;;;;;;0.60;0.60;;;4.80;99.90;;;;;;4972719;28;20223;-67
2022/01/05 01:07:41;;;;;;;0.90;0.80;;;4.80;99.90;;;;;;4973981;28;20170;-67
2022/01/05 01:10:07;;;;;;;1.33;0.50;;;4.80;99.90;;;;;;4976856;28;20172;-67
2022/01/05 01:12:34;;;;;;;0.60;0.60;;;4.80;99.90;;;;;;4976613;28;20215;-67
2022/01/05 01:15:03;;;;;;;1.30;1.03;;;4.80;99.90;;;;;;4976618;28;20412;-67
2022/01/05 01:17:28;;;;;;;0.83;0.60;;;4.80;99.90;;;;;;4976792;28;20462;-67
2022/01/05 01:19:54;;;;;;;0.90;0.60;;;4.80;99.90;;;;;;4976644;28;20411;-67
2022/01/05 01:22:19;;;;;;;0.50;0.50;;;4.80;99.90;;;;;;4976501;28;20211;-67
2022/01/05 01:24:45;;;;;;;0.90;0.50;;;4.80;99.90;;;;;;4976649;28;20173;-67
2022/01/05 01:27:10;;;;;;;1.00;1.00;;;4.80;99.90;;;;;;4976203;28;20693;-66
2022/01/05 01:29:36;;;;;;;0.63;0.43;;;4.80;99.90;;;;;;4976517;28;20255;-67
2022/01/05 01:32:04;;;;;;;0.80;0.80;;;4.90;99.90;;;;;;4976359;28;20200;-67
2022/01/05 01:34:30;;;;;;;0.70;0.70;;;4.90;99.90;;;;;;4976303;28;20510;-67
2022/01/05 01:36:55;;;;;;;0.87;0.60;;;4.90;99.90;;;;;;4976096;28;20418;-66
2022/01/05 01:39:21;;;;;;;1.10;0.93;;;4.90;99.90;;;;;;4976282;28;20235;-67
2022/01/05 01:41:46;;;;;;;0.67;0.53;;;4.90;99.90;;;;;;4976167;28;20202;-67
2022/01/05 01:44:12;;;;;;;0.70;0.70;;;4.90;99.90;;;;;;4976212;28;20178;-66
2022/01/05 01:46:37;;;;;;;3.33;0.73;;;4.90;99.90;;;;;;4975835;28;20184;-67
2022/01/05 01:49:03;;;;;;;0.50;0.50;;;4.90;99.90;;;;;;4976026;28;20180;-67
2022/01/05 01:51:29;;;;;;;0.60;0.57;;;4.90;99.90;;;;;;4975864;28;20270;-67
2022/01/05 01:53:54;;;;;;;0.93;0.83;;;4.90;99.90;;;;;;4975959;28;20259;-67
2022/01/05 01:56:22;;;;;;;0.80;0.70;;;5.00;99.90;;;;;;4975742;28;20172;-67
2022/01/05 01:58:48;;;;;;;1.93;0.77;;;5.00;99.90;;;;;;4976058;28;20219;-67
2022/01/05 02:01:16;;;;;;;0.83;0.60;;;5.00;99.90;;;;;;4975826;28;20522;-67
2022/01/05 02:03:41;;;;;;;0.60;0.60;;;5.00;99.90;;;;;;4975782;28;20462;-67
2022/01/05 02:06:07;;;;;;;0.70;0.63;;;5.00;99.90;;;;;;4975526;28;20458;-67
2022/01/05 02:08:34;;;;;;;0.70;0.70;;;5.00;99.90;;;;;;4975844;28;20176;-66
2022/01/05 02:11:00;;;;;;;0.70;0.53;;;5.00;99.90;;;;;;4975684;28;20200;-67
2022/01/05 02:13:26;;;;;;;0.70;0.70;;;5.00;99.90;;;;;;4975671;28;20871;-66
2022/01/05 02:15:51;;;;;;;0.83;0.40;;;5.00;99.90;;;;;;4975344;28;20176;-66
2022/01/05 02:20:48;;;;;;;0.63;0.63;;;5.10;99.90;;;;;;4975593;28;20298;-67
2022/01/05 02:23:14;;;;;;;0.60;0.60;;;5.10;99.90;;;;;;4975643;28;20484;-66
2022/01/05 02:25:39;;;;;;;1.10;0.80;;;5.10;99.90;;;;;;4975203;28;20996;-67
2022/01/05 02:28:05;;;;;;;2.20;0.80;;;5.10;99.90;;;;;;4975453;28;20207;-67
2022/01/05 02:30:31;;;;;;;0.73;0.70;;;5.10;99.90;;;;;;4975325;28;20203;-66
2022/01/05 02:32:57;;;;;;;0.60;0.60;;;5.00;99.90;;;;;;4975370;28;20224;-66
2022/01/05 02:35:24;;;;;;;0.70;0.63;;;5.00;99.90;;;;;;4975038;28;20420;-67
2022/01/05 02:37:53;;;;;;;1.73;0.70;;;5.00;99.90;;;;;;4975256;28;20416;-66
2022/01/05 02:40:21;;;;;;;2.03;1.03;;;5.10;99.90;;;;;;4975189;28;20442;-67
2022/01/05 02:42:47;;;;;;;1.47;0.70;;;5.10;99.90;;;;;;4975016;28;20427;-67
2022/01/05 02:45:14;;;;;;;0.70;0.70;;;5.10;99.90;;;;;;4974733;28;20411;-67
2022/01/05 02:47:41;;;;;;;1.40;1.30;;;5.10;99.90;;;;;;4975010;28;20423;-66
2022/01/05 02:50:08;;;;;;;0.80;0.77;;;5.10;99.90;;;;;;4975060;28;20423;-67
2022/01/05 02:52:34;;;;;;;0.90;0.80;;;5.00;99.90;;;;;;4974822;28;20502;-67
2022/01/05 02:55:00;;;;;;;1.27;1.17;;;5.00;99.90;;;;;;4974837;28;20797;-67
2022/01/05 02:57:26;;;;;;;1.87;1.50;;;4.90;99.90;;;;;;4973698;28;20215;-67
2022/01/05 02:59:53;;;;;;;0.93;0.83;;;4.90;99.90;;;;;;4974616;28;20431;-67
2022/01/05 03:02:19;;;;;;;1.90;1.37;;;4.90;99.90;;;;;;4974808;28;20792;-67
2022/01/05 03:04:45;;;;;;;1.27;1.00;;;4.80;99.90;;;;;;4973508;28;20431;-67
2022/01/05 03:07:10;;;;;;;2.40;0.97;;;4.80;99.90;;;;;;4974422;28;20253;-67
2022/01/05 03:09:36;;;;;;;1.10;1.00;;;4.80;99.90;;;;;;4974679;28;20183;-67
2022/01/05 03:12:01;;;;;;;1.60;1.07;;;4.80;99.90;;;;;;4974563;28;20208;-67
2022/01/05 03:14:27;;;;;;;0.93;0.90;;;4.80;99.90;;;;;;4974414;28;20559;-67
2022/01/05 03:16:53;;;;;;;1.23;0.80;;;4.80;99.90;;;;;;4974238;28;20176;-67
2022/01/05 03:19:18;;;;;;;1.27;1.17;;;4.70;99.90;;;;;;4974505;28;20183;-67
2022/01/05 03:21:44;;;;;;;1.03;1.00;;;4.70;99.90;;;;;;4974170;28;20212;-67
2022/01/05 03:24:09;;;;;;;1.10;0.87;;;4.70;99.90;;;;;;4974354;28;20558;-67
2022/01/05 03:26:35;;;;;;;0.90;0.83;;;4.70;99.90;;;;;;4974062;28;20176;-67
2022/01/05 03:29:00;;;;;;;0.80;0.80;;;4.70;99.90;;;;;;4974200;28;20176;-67
2022/01/05 03:31:26;;;;;;;2.20;0.90;;;4.70;99.90;;;;;;4973329;28;20223;-68
2022/01/05 03:33:51;;;;;;;0.83;0.70;;;4.70;99.90;;;;;;4974108;28;20173;-68
2022/01/05 03:36:17;;;;;;;0.97;0.90;;;4.70;99.90;;;;;;4973841;28;20172;-67
2022/01/05 03:38:42;;;;;;;0.77;0.70;;;4.70;99.90;;;;;;4974186;28;20668;-67
2022/01/05 03:41:08;;;;;;;0.60;0.60;;;4.70;99.90;;;;;;4973992;28;20724;-67
2022/01/05 03:43:34;;;;;;;0.70;0.70;;;4.70;99.90;;;;;;4973915;28;20196;-67
2022/01/05 03:45:59;;;;;;;0.67;0.67;;;4.70;99.90;;;;;;4973626;28;20184;-67
2022/01/05 03:48:25;;;;;;;0.80;0.70;;;4.70;99.90;;;;;;4973876;28;20179;-66
2022/01/05 03:50:51;;;;;;;0.50;0.40;;;4.70;99.90;;;;;;4973685;28;20262;-67
2022/01/05 03:53:16;;;;;;;0.60;0.60;;;4.70;99.90;;;;;;4973801;28;20168;-67
2022/01/05 03:55:43;;;;;;;0.70;0.60;;;4.60;99.90;;;;;;4973576;28;20172;-66
2022/01/05 03:58:10;;;;;;;0.60;0.60;;;4.60;99.90;;;;;;4973654;28;20169;-67
2022/01/05 04:00:40;;;;;;;0.50;0.50;;;4.60;99.90;;;;;;4973537;28;20407;-67
2022/01/05 04:03:06;;;;;;;0.97;0.70;;;4.60;99.90;;;;;;4973791;28;20419;-66
2022/01/05 04:05:32;;;;;;;0.80;0.70;;;4.60;99.90;;;;;;4973333;28;20434;-67
2022/01/05 04:07:57;;;;;;;0.60;0.60;;;4.70;99.90;;;;;;4973659;28;20283;-67
2022/01/05 04:10:23;;;;;;;0.80;0.60;;;4.70;99.90;;;;;;4973468;28;20179;-67
2022/01/05 04:12:49;;;;;;;0.93;0.53;;;4.70;99.90;;;;;;4973462;28;20168;-66
2022/01/05 04:15:17;;;;;;;0.50;0.50;;;4.70;99.90;;;;;;4973205;28;20419;-67
2022/01/05 04:17:43;;;;;;;1.27;0.70;;;4.70;99.90;;;;;;4973511;28;20177;-66
2022/01/05 04:20:11;;;;;;;0.53;0.53;;;4.70;99.90;;;;;;4973457;28;20424;-67
2022/01/05 04:22:36;;;;;;;0.50;0.50;;;4.70;99.90;;;;;;4973678;28;20518;-67
2022/01/05 04:25:02;;;;;;;1.17;0.70;;;4.70;99.90;;;;;;4973158;28;20427;-67
2022/01/05 04:27:28;;;;;;;1.20;0.70;;;4.70;99.90;;;;;;4973236;28;20172;-67
2022/01/05 04:29:54;;;;;;;0.67;0.50;;;4.70;99.90;;;;;;4973275;28;20424;-67
2022/01/05 04:32:19;;;;;;;0.57;0.57;;;4.70;99.90;;;;;;4973199;28;20216;-67
2022/01/05 04:34:44;;;;;;;0.93;0.60;;;4.60;99.90;;;;;;4973218;28;20315;-67
2022/01/05 04:37:10;;;;;;;2.60;0.50;;;4.70;99.90;;;;;;4972999;28;20515;-68
2022/01/05 04:39:36;;;;;;;0.80;0.80;;;4.70;99.90;;;;;;4973214;28;20176;-67
2022/01/05 04:42:02;;;;;;;1.23;0.50;;;4.60;99.90;;;;;;4972913;28;20200;-68
2022/01/05 04:44:27;;;;;;;0.53;0.50;;;4.60;99.90;;;;;;4973175;28;20707;-68
2022/01/05 04:46:53;;;;;;;0.93;0.60;;;4.70;99.90;;;;;;4972953;28;20428;-68
2022/01/05 04:49:19;;;;;;;0.50;0.50;;;4.60;99.90;;;;;;4973198;28;20180;-68
2022/01/05 04:51:45;;;;;;;0.57;0.47;;;4.60;99.90;;;;;;4972922;28;20571;-67
2022/01/05 04:54:10;;;;;;;0.60;0.50;;;4.60;99.90;;;;;;4973142;28;20562;-67
2022/01/05 04:56:36;;;;;;;0.60;0.60;;;4.50;99.90;;;;;;4972630;28;20200;-67
2022/01/05 04:59:02;;;;;;;0.80;0.80;;;4.50;99.90;;;;;;4973061;28;20179;-67
2022/01/05 05:01:27;;;;;;;0.70;0.70;;;4.50;99.90;;;;;;4973012;28;20244;-67
2022/01/05 05:03:53;;;;;;;1.80;1.03;;;4.50;99.90;;;;;;4973025;28;20424;-68
2022/01/05 05:06:18;;;;;;;0.90;0.90;;;4.40;99.90;;;;;;4972584;28;20176;-67
2022/01/05 05:08:44;;;;;;;0.73;0.60;;;4.40;99.90;;;;;;4973035;28;20195;-68
2022/01/05 05:11:10;;;;;;;0.83;0.83;;;4.40;99.90;;;;;;4972769;28;20582;-67
2022/01/05 05:13:35;;;;;;;0.97;0.90;;;4.40;99.90;;;;;;4973014;28;20180;-67
2022/01/05 05:16:01;;;;;;;1.10;1.00;;;4.50;99.90;;;;;;4972743;28;20419;-67
2022/01/05 05:18:27;;;;;;;1.40;1.30;;;4.50;99.90;;;;;;4972971;28;20172;-67
2022/01/05 05:20:53;;;;;;;1.60;1.50;;;4.50;99.90;;;;;;4972659;28;20840;-67
2022/01/05 05:23:18;;;;;;;2.50;1.20;;;4.50;99.90;;;;;;4972877;28;20172;-67
2022/01/05 05:25:44;;;;;;;1.30;1.13;;;4.50;99.90;;;;;;4972482;28;20249;-67
2022/01/05 05:28:09;;;;;;;1.67;1.57;;;4.60;99.90;;;;;;4972810;28;20176;-67
2022/01/05 05:30:36;;;;;;;0.93;0.90;;;4.60;99.90;;;;;;4972651;28;20677;-67
2022/01/05 05:33:02;;;;;;;1.90;0.90;;;4.60;99.90;;;;;;4972797;28;20251;-67
2022/01/05 05:35:28;;;;;;;0.63;0.60;;;4.20;99.90;;;;;;4972476;28;20412;-67
2022/01/05 05:37:54;;;;;;;0.73;0.73;;;3.80;99.90;;;;;;4972749;28;20793;-67
2022/01/05 05:40:20;;;;;;;0.87;0.80;;;3.50;99.90;;;;;;4972586;28;20668;-67
2022/01/05 05:42:46;;;;;;;0.70;0.60;;;3.20;99.90;;;;;;4972616;28;20443;-67
2022/01/05 05:45:11;;;;;;;1.00;0.90;;;3.00;99.90;;;;;;4972463;28;20176;-67
2022/01/05 05:47:37;;;;;;;1.07;0.53;;;2.90;99.90;;;;;;4972783;28;20173;-67
2022/01/05 05:50:03;;;;;;;1.40;0.80;;;2.80;99.90;;;;;;4972641;28;20184;-67
2022/01/05 05:52:28;;;;;;;2.40;0.80;;;2.60;99.90;;;;;;4972394;28;20270;-67
2022/01/05 05:54:54;;;;;;;1.13;1.10;;;2.60;99.90;;;;;;4975160;28;20860;-67
2022/01/05 05:57:20;;;;;;;2.33;0.90;;;2.60;99.90;;;;;;4975884;28;20203;-68
2022/01/05 05:59:45;;;;;;;0.77;0.77;;;2.60;99.90;;;;;;4975984;28;20179;-67
2022/01/05 06:02:11;;;;;;;2.50;1.00;;;2.50;99.90;;;;;;4975911;28;20542;-67
2022/01/05 06:04:36;;;;;;;1.10;1.00;;;2.60;99.90;;;;;;4976050;28;20164;-68
2022/01/05 06:07:02;;;;;;;0.83;0.83;;;2.60;99.90;;;;;;4975560;28;20184;-68
2022/01/05 06:09:28;;;;;;;1.27;1.17;;;2.60;99.90;;;;;;4975711;28;20184;-67
2022/01/05 06:11:53;;;;;;;1.53;1.43;;;2.70;99.90;;;;;;4975609;28;20475;-67
2022/01/05 06:14:19;;;;;;;2.37;1.03;;;2.70;99.90;;;;;;4975767;28;20168;-67
2022/01/05 06:16:45;;;;;;;2.00;1.27;;;2.70;99.90;;;;;;4975440;28;20176;-67
2022/01/05 06:19:10;;;;;;;1.43;1.10;;;2.70;99.90;;;;;;4975648;28;20172;-68
2022/01/05 06:21:36;;;;;;;2.10;1.50;;;2.70;99.90;;;;;;4975447;28;20624;-67
2022/01/05 06:24:01;;;;;;;1.83;1.23;;;2.70;99.90;;;;;;4975575;28;20524;-67
2022/01/05 06:26:27;;;;;;;3.33;2.20;;;2.70;99.90;;;;;;4975175;28;20183;-67
2022/01/05 06:28:53;;;;;;;2.83;1.30;;;2.80;99.90;;;;;;4975472;28;20180;-67
2022/01/05 06:31:18;;;;;;;1.87;1.43;;;2.80;99.90;;;;;;4975315;28;20208;-67
2022/01/05 06:33:44;;;;;;;2.03;1.53;;;2.80;99.90;;;;;;4975394;28;20244;-67
2022/01/05 06:36:09;;;;;;;2.87;1.50;;;2.80;99.90;;;;;;4975032;28;20200;-67
2022/01/05 06:38:35;;;;;;;1.80;1.60;;;2.80;99.90;;;;;;4975309;28;20227;-67
2022/01/05 06:41:00;;;;;;;2.63;1.50;;;2.80;99.90;;;;;;4975146;28;20203;-68
2022/01/05 06:43:26;;;;;;;2.03;1.90;;;2.70;99.90;;;;;;4975372;28;20184;-67
2022/01/05 06:45:51;;;;;;;2.03;1.80;;;2.80;99.90;;;;;;4974842;28;20172;-67
2022/01/05 06:48:17;;;;;;;4.43;2.70;;;2.70;99.90;;;;;;4975148;28;20180;-67
2022/01/05 06:50:43;;;;;;;2.60;1.60;;;2.70;99.90;;;;;;4974902;28;20246;-67
2022/01/05 06:53:09;;;;;;;5.20;2.60;;;2.80;99.90;;;;;;4974962;28;20165;-67
2022/01/05 06:55:34;;;;;;;3.47;1.93;;;2.80;99.90;;;;;;4974662;28;20172;-67
2022/01/05 06:58:00;;;;;;;3.43;2.47;;;2.80;99.90;;;;;;4974942;28;20478;-67
2022/01/05 07:00:26;;;;;;;1.80;1.60;;;2.80;99.90;;;;;;4974935;28;20342;-67
2022/01/05 07:02:52;;;;;;;2.33;1.50;;;2.90;99.90;;;;;;4974987;28;20255;-67
2022/01/05 07:05:18;;;;;;;1.60;1.50;;;2.90;99.90;;;;;;4973415;28;20502;-67
2022/01/05 07:07:44;;;;;;;3.00;1.37;;;3.00;99.90;;;;;;4974743;28;20169;-67
2022/01/05 07:10:11;;;;;;;1.53;1.43;;;3.00;99.90;;;;;;4974728;28;20430;-67
2022/01/05 07:12:38;;;;;;;1.73;1.37;;;3.10;99.90;;;;;;4974513;28;20831;-68
2022/01/05 07:15:04;;;;;;;1.60;1.40;;;3.10;99.90;;;;;;4974347;28;21167;-67
2022/01/05 07:17:30;;;;;;;1.70;1.60;;;3.10;99.90;;;;;;4974633;28;20415;-68
2022/01/05 07:19:55;;;;;;;1.87;1.40;;;3.10;99.90;;;;;;4974575;28;20424;-67
2022/01/05 07:22:21;;;;;;;2.00;1.60;;;3.10;99.90;;;;;;4974314;28;20282;-67
2022/01/05 07:24:47;;;;;;;1.50;1.40;;;3.00;99.90;;;;;;4974352;28;20235;-67
2022/01/05 07:27:12;;;;;;;1.50;1.40;;;2.90;99.90;;;;;;4973862;28;20188;-67
2022/01/05 07:29:38;;;;;;;2.37;2.13;;;2.90;99.90;;;;;;4974497;28;20482;-67
2022/01/05 07:32:04;;;;;;;2.63;1.83;;;2.80;99.90;;;;;;4974109;28;20220;-67
2022/01/05 07:34:30;;;;;;;2.00;1.53;;;2.80;99.90;;;;;;4974329;28;20183;-67
2022/01/05 07:36:55;;;;;;;2.53;1.00;;;2.80;99.90;;;;;;4973869;28;20428;-67
2022/01/05 07:39:21;;;;;;;5.00;1.50;;;2.80;99.90;;;;;;4974093;28;20235;-67
2022/01/05 07:41:46;;;;;;;4.00;2.00;;;2.70;99.90;;;;;;4973774;28;20212;-67
2022/01/05 07:44:12;;;;;;;3.77;1.70;;;2.60;99.90;;;;;;4972847;28;20188;-67
2022/01/05 07:46:37;;;;;;;2.63;1.70;;;2.60;99.90;;;;;;4973869;28;20179;-67
2022/01/05 07:49:05;;;;;;;1.87;1.63;;;2.60;99.90;;;;;;4974044;28;20187;-67
2022/01/05 07:51:31;;;;;;;3.30;1.87;;;2.50;99.90;;;;;;4973782;28;20234;-67
2022/01/05 07:53:56;;;;;;;1.57;1.47;;;2.50;99.90;;;;;;4974118;28;20460;-67
2022/01/05 07:56:22;;;;;;;4.53;2.30;;;2.50;99.90;;;;;;4973537;28;20172;-67
2022/01/05 07:58:49;;;;;;;1.87;1.67;;;2.50;99.90;;;;;;4973859;28;20649;-67
2022/01/05 08:01:18;;;;;;;5.50;2.20;;;2.40;99.90;;;;;;4973540;28;20941;-67
2022/01/05 08:03:45;;;;;;;4.83;2.40;;;2.40;99.90;;;;;;4972478;28;20431;-67
2022/01/05 08:06:10;;;;;;;6.43;3.00;;;2.50;99.90;;;;;;4973385;28;20438;-67
2022/01/05 08:08:36;;;;;;;6.77;3.23;;;2.40;99.90;;;;;;4973664;28;20427;-67
2022/01/05 08:11:01;;;;;;;5.40;3.27;;;2.40;99.90;;;;;;4973549;28;20206;-67
2022/01/05 08:13:27;;;;;;;5.10;3.17;;;2.50;99.90;;;;;;4973551;28;20258;-67
2022/01/05 08:15:53;;;;;;;4.93;3.50;;;2.50;99.90;;;;;;4973111;28;20262;-67
2022/01/05 08:18:19;;;;;;;4.20;2.90;;;2.40;99.90;;;;;;4973314;28;20176;-67
2022/01/05 08:20:46;;;;;;;3.50;3.13;;;2.40;99.90;;;;;;4973008;28;20456;-67
2022/01/05 08:23:18;;;;;;;7.20;3.10;;;2.40;99.90;;;;;;4973411;28;20251;-67
2022/01/05 08:25:45;;;;;;;3.67;2.70;;;2.40;99.90;;;;;;4973132;28;20506;-67
2022/01/05 08:28:11;;;;;;;3.63;2.87;;;2.50;99.90;;;;;;4973160;28;20503;-67
2022/01/05 08:30:38;;;;;;;4.30;3.10;;;2.60;99.90;;;;;;4956560;28;20506;-68
2022/01/05 08:33:04;;;;;;;2.73;2.43;;;2.70;99.90;;;;;;4946097;28;21003;-66
2022/01/05 08:35:30;;;;;;;6.20;2.47;;;2.60;99.90;;;;;;4972756;28;20432;-66
2022/01/05 08:37:56;;;;;;;2.90;2.37;;;2.70;99.90;;;;;;4972871;28;20436;-66
2022/01/05 08:40:23;;;;;;;3.60;2.07;;;2.70;99.90;;;;;;4968920;28;20447;-68
2022/01/05 08:42:49;;;;;;;3.90;3.50;;;2.80;99.90;;;;;;4973015;28;20223;-68
2022/01/05 08:45:17;;;;;;;3.10;2.23;;;2.70;99.90;;;;;;4972878;28;20844;-68
2022/01/05 08:47:47;;;;;;;4.20;2.37;;;2.60;99.90;;;;;;4973224;28;20463;-68
2022/01/05 08:50:13;;;;;;;2.70;2.00;;;2.50;99.90;;;;;;4969700;28;20510;-68
2022/01/05 08:52:38;;;;;;;4.03;2.37;;;2.50;99.90;;;;;;4972866;28;20844;-68
2022/01/05 08:55:05;;;;;;;2.80;2.50;;;2.40;99.90;;;;;;4972809;28;20419;-68
2022/01/05 08:57:30;;;;;;;3.70;2.20;;;2.40;99.90;;;;;;4973042;28;20179;-68
2022/01/05 08:59:56;;;;;;;5.13;2.50;;;2.60;99.90;;;;;;4971289;28;20424;-68
2022/01/05 09:02:21;;;;;;;4.40;2.40;;;2.70;99.90;;;;;;4971402;28;20246;-68
2022/01/05 09:04:51;;;;;;;4.17;2.67;;;2.70;99.90;;;;;;4973003;28;20188;-69
2022/01/05 09:07:17;;;;;;;2.17;1.97;;;2.80;99.90;;;;;;4972107;28;20211;-69
2022/01/05 09:09:42;;;;;;;4.00;2.00;;;2.70;99.90;;;;;;4972604;28;20459;-71
2022/01/05 09:12:09;;;;;;;7.57;2.73;;;2.60;99.90;;;;;;4969038;28;20215;-71
2022/01/05 09:14:35;;;;;;;3.40;2.50;;;2.50;99.90;;;;;;4972235;28;20272;-70
2022/01/05 09:17:00;;;;;;;5.30;3.87;;;3.10;99.90;;;;;;4971729;28;20985;-69
2022/01/05 09:19:28;;;;;;;2.07;1.87;;;4.70;99.90;;;;;;4972842;28;20746;-68
2022/01/05 09:21:53;;;;;;;4.17;2.47;;;6.30;99.90;;;;;;4968950;28;20219;-68
2022/01/05 09:24:19;;;;;;;3.70;2.60;;;7.20;99.90;;;;;;4970893;28;20494;-69
2022/01/05 09:26:44;;;;;;;3.27;1.93;;;8.00;99.90;;;;;;4971886;28;20646;-68
2022/01/05 09:29:10;;;;;;;4.10;2.00;;;8.30;99.90;;;;;;4974036;28;20180;-69
2022/01/05 09:31:35;;;;;;;2.90;2.00;;;8.20;99.90;;;;;;4972489;28;20200;-68
2022/01/05 09:34:01;;;;;;;6.20;2.40;;;8.30;99.90;;;;;;4976257;28;20185;-67
2022/01/05 09:36:34;;;;;;;1.83;1.70;;;8.40;99.90;;;;;;4976088;28;20306;-68
2022/01/05 09:41:56;;;;;;;2.23;1.87;;;10.50;99.90;;;;;;4968704;28;20546;-68
2022/01/05 09:44:41;;;;;;;4.00;1.80;;;9.80;99.90;;;;;;4973241;28;20422;-68
2022/01/05 09:47:44;;;;;;;5.27;2.53;;;10.70;99.90;;;;;;4972804;28;20431;-68
2022/01/05 09:50:13;;;;;;;3.13;1.90;;;11.10;99.90;;;;;;4969646;28;20437;-68
2022/01/05 09:52:43;;;;;;;4.10;2.00;;;11.30;99.90;;;;;;4974254;28;20521;-68
2022/01/05 09:55:11;;;;;;;5.30;2.23;;;10.60;99.50;;;;;;4974728;28;20432;-68
2022/01/05 09:57:39;;;;;;;4.00;2.47;;;10.50;99.90;;;;;;4975546;28;20416;-68
2022/01/05 10:00:06;;;;;;;4.20;2.50;;;9.50;99.90;;;;;;4972851;28;20412;-69
2022/01/05 10:02:32;;;;;;;6.10;2.40;;;8.80;99.90;;;;;;4975313;28;20804;-68
2022/01/05 10:04:58;;;;;;;7.13;3.23;;;7.70;99.90;;;;;;4975728;28;20498;-68
2022/01/05 10:07:24;;;;;;;3.37;1.83;;;7.00;99.90;;;;;;4975861;28;20207;-67
2022/01/05 10:09:49;;;;;;;4.70;2.10;;;6.40;99.90;;;;;;4975406;28;20462;-69
2022/01/05 10:12:15;;;;;;;2.10;1.90;;;6.90;99.90;;;;;;4972997;28;20212;-68
2022/01/05 10:14:45;;;;;;;5.07;2.53;;;7.00;99.90;;;;;;4975768;28;20227;-68
2022/01/05 10:17:28;;;;;;;5.27;2.00;;;7.10;99.90;;;;;;4975599;28;20207;-68
2022/01/05 10:20:08;;;;;;;5.07;1.77;;;6.70;99.90;;;;;;4974542;28;20427;-68
2022/01/05 10:22:33;;;;;;;5.47;2.30;;;7.00;99.90;;;;;;4975502;28;20595;-69
2022/01/05 10:25:02;;;;;;;9.37;2.60;;;6.50;99.90;;;;;;4975395;28;20424;-67
2022/01/05 10:27:28;;;;;;;5.67;2.03;;;5.60;99.90;;;;;;4974253;28;20180;-67
2022/01/05 10:30:01;;;;;;;2.43;1.67;;;5.20;99.90;;;;;;4974134;28;20438;-67
2022/01/05 10:32:33;;;;;;;3.73;2.30;;;5.60;99.90;;;;;;4972843;28;20467;-67
2022/01/05 10:35:00;;;;;;;8.07;2.17;;;6.40;99.90;;;;;;4975218;28;20423;-67
2022/01/05 10:37:25;;;;;;;2.10;1.43;;;8.20;99.90;;;;;;4975284;28;20508;-67
2022/01/05 10:40:11;;;;;;;3.03;2.23;;;10.60;99.70;;;;;;4973956;28;20503;-67
2022/01/05 10:42:38;;;;;;;3.97;2.80;;;12.20;95.30;;;;;;4973851;28;20223;-67
2022/01/05 10:45:06;;;;;;;6.97;2.63;;;10.90;94.30;;;;;;4974993;28;20925;-67
2022/01/05 10:47:33;;;;;;;8.13;2.77;;;9.00;95.90;;;;;;4975223;28;20423;-67
2022/01/05 10:49:59;;;;;;;5.47;2.00;;;7.80;99.60;;;;;;4973010;28;20416;-67
2022/01/05 10:52:30;;;;;;;8.70;2.43;;;7.00;99.90;;;;;;4973589;28;20467;-67
2022/01/05 10:55:13;;;;;;;2.73;2.17;;;6.30;99.90;;;;;;4974881;28;20426;-67
2022/01/05 10:57:54;;;;;;;5.20;2.30;;;6.20;99.90;;;;;;4975002;28;20423;-67
2022/01/05 11:00:33;;;;;;;5.30;2.23;;;7.70;99.90;;;;;;4972051;28;20438;-67
2022/01/05 11:03:00;;;;;;;5.47;1.73;;;8.60;99.90;;;;;;4974787;28;20489;-68
2022/01/05 11:05:26;;;;;;;3.97;1.73;;;9.30;99.10;;;;;;4974402;28;20474;-67
2022/01/05 11:08:06;;;;;;;5.67;1.60;;;10.50;96.90;;;;;;4974810;28;20919;-67
2022/01/05 11:10:32;;;;;;;7.80;1.97;;;12.00;93.70;;;;;;4971272;28;20639;-67
2022/01/05 11:12:57;;;;;;;7.57;2.40;;;10.70;92.50;;;;;;4974587;28;20475;-67
2022/01/05 11:15:34;;;;;;;4.70;1.70;;;11.20;93.20;;;;;;4974339;28;20696;-67
2022/01/05 11:18:20;;;;;;;7.00;2.40;;;12.60;90.90;;;;;;4973269;28;20551;-67
2022/01/05 11:20:52;;;;;;;5.00;2.20;;;15.90;80.30;;;;;;4970971;28;20456;-67
2022/01/05 11:23:23;;;;;;;5.17;2.40;;;18.00;69.70;;;;;;4974549;28;20458;-67
2022/01/05 11:25:50;;;;;;;8.07;2.40;;;18.10;61.60;;;;;;4974210;28;20944;-67
2022/01/05 11:28:17;;;;;;;3.40;2.23;;;15.70;60.60;;;;;;4974303;28;20423;-67
2022/01/05 11:30:45;;;;;;;6.97;3.00;;;11.70;70.30;;;;;;4970943;28;20460;-67
2022/01/05 11:33:12;;;;;;;8.40;4.30;;;10.10;78.90;;;;;;4973009;28;20432;-67
2022/01/05 11:35:39;;;;;;;9.73;2.90;;;8.90;85.70;;;;;;4973965;28;20428;-67
2022/01/05 11:38:06;;;;;;;6.20;1.70;;;8.50;90.50;;;;;;4974295;28;20502;-67
2022/01/05 11:40:33;;;;;;;9.07;2.40;;;9.00;91.50;;;;;;4971115;28;20435;-67
2022/01/05 11:43:04;;;;;;;5.00;2.63;;;9.10;90.20;;;;;;4973781;28;20486;-67
2022/01/05 11:45:45;;;;;;;5.40;2.33;;;8.00;92.20;;;;;;4973713;28;20511;-67
2022/01/05 11:48:12;;;;;;;5.63;2.20;;;7.30;95.80;;;;;;4973519;28;20463;-67
2022/01/05 11:50:47;;;;;;;7.30;2.50;;;7.70;97.10;;;;;;4969977;28;20843;-66
2022/01/05 11:53:13;;;;;;;3.87;2.50;;;8.60;94.50;;;;;;4970052;28;20964;-67
2022/01/05 11:56:16;;;;;;;5.90;2.60;;;8.30;95.00;;;;;;4973695;28;20515;-67
2022/01/05 11:59:01;;;;;;;4.37;2.63;;;9.80;92.10;;;;;;4972528;28;20186;-67
2022/01/05 12:01:37;;;;;;;5.70;2.53;;;10.60;90.60;;;;;;4970287;28;20842;-67
2022/01/05 12:04:09;;;;;;;7.27;3.10;;;11.50;91.40;;;;;;4973687;28;20423;-66
2022/01/05 12:07:01;;;;;;;5.03;2.27;;;14.10;82.60;;;;;;4973502;28;20423;-68
2022/01/05 12:09:29;;;;;;;5.53;2.67;;;16.90;69.00;;;;;;4973684;28;20435;-66
2022/01/05 12:12:15;;;;;;;5.10;2.33;;;17.90;62.70;;;;;;4969554;28;20466;-67
2022/01/05 12:14:45;;;;;;;3.13;2.40;;;17.00;59.20;;;;;;4946635;29;20531;-67
2022/01/05 12:17:15;;;;;;;7.23;3.80;;;17.20;59.80;;;;;;4954000;29;20435;-67
2022/01/05 12:19:47;;;;;;;7.27;4.10;;;16.00;59.50;;;;;;4966676;28;20431;-69
2022/01/05 12:22:21;;;;;;;6.60;3.20;;;15.30;61.30;;;;;;4966838;28;20525;-68
2022/01/05 12:24:53;;;;;;;5.10;2.60;;;13.40;61.40;;;;;;4970389;28;20438;-67
2022/01/05 12:27:23;;;;;;;6.30;2.57;;;12.30;65.40;;;;;;4969358;28;20949;-68
2022/01/05 12:29:50;;;;;;;5.77;2.50;;;13.50;65.90;;;;;;4969375;28;20925;-66
2022/01/05 12:32:35;;;;;;;4.50;2.33;;;15.40;60.80;;;;;;4967588;28;20476;-68
2022/01/05 12:35:07;;;;;;;3.50;2.37;;;17.20;58.70;;;;;;4969482;28;20435;-68
2022/01/05 12:37:47;;;;;;;2.57;2.23;;;16.70;55.30;;;;;;4969860;28;20428;-68
2022/01/05 12:40:32;;;;;;;6.60;3.07;;;16.80;56.90;;;;;;4966539;28;20455;-67
2022/01/05 12:43:10;;;;;;;6.33;2.83;;;14.20;57.20;;;;;;4970277;28;20462;-67
2022/01/05 12:45:46;;;;;;;6.60;3.40;;;13.40;60.40;;;;;;4971090;28;20435;-67
2022/01/05 12:48:30;;;;;;;6.00;3.47;;;14.00;60.80;;;;;;4973051;28;20446;-67
2022/01/05 12:51:15;;;;;;;6.73;2.40;;;15.10;58.00;;;;;;4969567;28;20443;-67
2022/01/05 12:54:02;;;;;;;4.90;2.43;;;14.30;58.80;;;;;;4973061;28;20777;-67
2022/01/05 12:56:59;;;;;;;4.90;2.77;;;14.80;59.10;;;;;;4971389;28;20518;-67
2022/01/05 12:59:39;;;;;;;2.03;1.83;;;14.80;57.50;;;;;;4953480;29;20436;-67
2022/01/05 13:02:06;;;;;;;4.97;2.60;;;13.80;58.10;;;;;;4967009;28;20502;-67
2022/01/05 13:04:33;;;;;;;5.10;2.30;;;15.30;58.10;;;;;;4976505;28;20435;-67